sensor_id;sensor_type;location;lat;lon;timestamp;P1;durP1;ratioP1;P2;durP2;ratioP2
18200;SDS011;9226;47.858;9.594;2023-02-28T00:00:39;10.23;;;4.23;;
18200;SDS011;9226;47.858;9.594;2023-02-28T00:03:04;13.43;;;4.67;;
18200;SDS011;9226;47.858;9.594;2023-02-28T00:05:30;12.87;;;5.07;;
18200;SDS011;9226;47.858;9.594;2023-02-28T00:07:55;9.50;;;4.67;;
18200;SDS011;9226;47.858;9.594;2023-02-28T00:10:22;10.17;;;4.40;;
18200;SDS011;9226;47.858;9.594;2023-02-28T00:12:53;11.33;;;4.90;;
18200;SDS011;9226;47.858;9.594;2023-02-28T00:15:21;10.27;;;4.87;;
18200;SDS011;9226;47.858;9.594;2023-02-28T00:17:48;9.20;;;4.47;;
18200;SDS011;9226;47.858;9.594;2023-02-28T00:20:13;8.40;;;4.20;;
18200;SDS011;9226;47.858;9.594;2023-02-28T00:22:39;9.73;;;4.27;;
18200;SDS011;9226;47.858;9.594;2023-02-28T00:25:10;9.07;;;4.27;;
18200;SDS011;9226;47.858;9.594;2023-02-28T00:27:38;10.00;;;4.60;;
18200;SDS011;9226;47.858;9.594;2023-02-28T00:30:04;9.87;;;4.83;;
18200;SDS011;9226;47.858;9.594;2023-02-28T00:32:31;10.43;;;4.63;;
18200;SDS011;9226;47.858;9.594;2023-02-28T00:34:57;9.50;;;3.70;;
18200;SDS011;9226;47.858;9.594;2023-02-28T00:37:22;9.60;;;4.33;;
18200;SDS011;9226;47.858;9.594;2023-02-28T00:39:48;7.73;;;4.30;;
18200;SDS011;9226;47.858;9.594;2023-02-28T00:42:13;8.97;;;4.23;;
18200;SDS011;9226;47.858;9.594;2023-02-28T00:44:39;12.13;;;4.73;;
18200;SDS011;9226;47.858;9.594;2023-02-28T00:47:04;8.70;;;4.20;;
18200;SDS011;9226;47.858;9.594;2023-02-28T00:49:29;9.30;;;4.27;;
18200;SDS011;9226;47.858;9.594;2023-02-28T00:51:55;9.47;;;4.63;;
18200;SDS011;9226;47.858;9.594;2023-02-28T00:54:21;8.80;;;4.50;;
18200;SDS011;9226;47.858;9.594;2023-02-28T00:56:47;13.37;;;4.40;;
18200;SDS011;9226;47.858;9.594;2023-02-28T00:59:13;8.40;;;4.50;;
18200;SDS011;9226;47.858;9.594;2023-02-28T01:01:39;10.93;;;4.73;;
18200;SDS011;9226;47.858;9.594;2023-02-28T01:04:05;8.37;;;4.33;;
18200;SDS011;9226;47.858;9.594;2023-02-28T01:06:31;8.60;;;4.47;;
18200;SDS011;9226;47.858;9.594;2023-02-28T01:08:56;7.43;;;4.27;;
18200;SDS011;9226;47.858;9.594;2023-02-28T01:11:22;11.63;;;4.67;;
18200;SDS011;9226;47.858;9.594;2023-02-28T01:13:48;14.60;;;3.93;;
18200;SDS011;9226;47.858;9.594;2023-02-28T01:16:13;8.00;;;4.10;;
18200;SDS011;9226;47.858;9.594;2023-02-28T01:18:39;10.13;;;4.47;;
18200;SDS011;9226;47.858;9.594;2023-02-28T01:21:05;9.33;;;4.43;;
18200;SDS011;9226;47.858;9.594;2023-02-28T01:23:32;8.60;;;4.10;;
18200;SDS011;9226;47.858;9.594;2023-02-28T01:26:03;8.07;;;3.87;;
18200;SDS011;9226;47.858;9.594;2023-02-28T01:28:32;10.37;;;4.17;;
18200;SDS011;9226;47.858;9.594;2023-02-28T01:30:58;8.33;;;4.00;;
18200;SDS011;9226;47.858;9.594;2023-02-28T01:33:24;9.33;;;4.03;;
18200;SDS011;9226;47.858;9.594;2023-02-28T01:35:56;7.80;;;4.00;;
18200;SDS011;9226;47.858;9.594;2023-02-28T01:38:23;10.70;;;4.70;;
18200;SDS011;9226;47.858;9.594;2023-02-28T01:40:49;9.47;;;4.63;;
18200;SDS011;9226;47.858;9.594;2023-02-28T01:43:25;10.00;;;4.10;;
18200;SDS011;9226;47.858;9.594;2023-02-28T01:45:55;7.80;;;3.80;;
18200;SDS011;9226;47.858;9.594;2023-02-28T01:48:23;7.93;;;4.40;;
18200;SDS011;9226;47.858;9.594;2023-02-28T01:50:52;7.50;;;4.10;;
18200;SDS011;9226;47.858;9.594;2023-02-28T01:53:24;7.03;;;3.97;;
18200;SDS011;9226;47.858;9.594;2023-02-28T01:55:55;8.97;;;4.33;;
18200;SDS011;9226;47.858;9.594;2023-02-28T01:58:21;8.57;;;3.87;;
18200;SDS011;9226;47.858;9.594;2023-02-28T02:00:47;6.73;;;3.93;;
18200;SDS011;9226;47.858;9.594;2023-02-28T02:03:14;7.60;;;3.90;;
18200;SDS011;9226;47.858;9.594;2023-02-28T02:05:44;7.47;;;3.73;;
18200;SDS011;9226;47.858;9.594;2023-02-28T02:08:13;12.33;;;4.20;;
18200;SDS011;9226;47.858;9.594;2023-02-28T02:10:43;6.57;;;3.67;;
18200;SDS011;9226;47.858;9.594;2023-02-28T02:18:47;10.77;;;4.93;;
18200;SDS011;9226;47.858;9.594;2023-02-28T02:27:17;7.17;;;3.93;;
18200;SDS011;9226;47.858;9.594;2023-02-28T02:42:54;8.23;;;3.80;;
18200;SDS011;9226;47.858;9.594;2023-02-28T02:45:31;9.53;;;4.00;;
18200;SDS011;9226;47.858;9.594;2023-02-28T02:48:11;8.37;;;4.07;;
18200;SDS011;9226;47.858;9.594;2023-02-28T02:50:44;10.10;;;4.53;;
18200;SDS011;9226;47.858;9.594;2023-02-28T02:53:14;9.97;;;4.53;;
18200;SDS011;9226;47.858;9.594;2023-02-28T02:55:44;9.53;;;3.90;;
18200;SDS011;9226;47.858;9.594;2023-02-28T02:58:18;14.50;;;4.87;;
18200;SDS011;9226;47.858;9.594;2023-02-28T03:00:50;6.73;;;3.87;;
18200;SDS011;9226;47.858;9.594;2023-02-28T03:03:18;8.93;;;4.47;;
18200;SDS011;9226;47.858;9.594;2023-02-28T03:05:54;12.27;;;4.27;;
18200;SDS011;9226;47.858;9.594;2023-02-28T03:08:24;8.17;;;4.53;;
18200;SDS011;9226;47.858;9.594;2023-02-28T03:10:51;7.60;;;3.87;;
18200;SDS011;9226;47.858;9.594;2023-02-28T03:22:14;9.63;;;3.83;;
18200;SDS011;9226;47.858;9.594;2023-02-28T03:27:53;9.53;;;4.00;;
18200;SDS011;9226;47.858;9.594;2023-02-28T03:33:20;10.50;;;5.00;;
18200;SDS011;9226;47.858;9.594;2023-02-28T03:35:53;10.47;;;4.73;;
18200;SDS011;9226;47.858;9.594;2023-02-28T03:38:34;10.53;;;4.80;;
18200;SDS011;9226;47.858;9.594;2023-02-28T03:41:18;9.57;;;4.37;;
18200;SDS011;9226;47.858;9.594;2023-02-28T03:43:50;11.67;;;5.33;;
18200;SDS011;9226;47.858;9.594;2023-02-28T03:46:21;10.27;;;4.57;;
18200;SDS011;9226;47.858;9.594;2023-02-28T03:49:08;8.33;;;4.20;;
18200;SDS011;9226;47.858;9.594;2023-02-28T03:51:40;10.00;;;4.90;;
18200;SDS011;9226;47.858;9.594;2023-02-28T03:54:18;11.87;;;4.40;;
18200;SDS011;9226;47.858;9.594;2023-02-28T03:56:53;10.27;;;4.83;;
18200;SDS011;9226;47.858;9.594;2023-02-28T03:59:30;10.40;;;4.90;;
18200;SDS011;9226;47.858;9.594;2023-02-28T04:02:20;12.00;;;4.33;;
18200;SDS011;9226;47.858;9.594;2023-02-28T04:04:46;13.00;;;5.47;;
18200;SDS011;9226;47.858;9.594;2023-02-28T04:07:13;10.70;;;5.33;;
18200;SDS011;9226;47.858;9.594;2023-02-28T04:09:40;12.10;;;4.50;;
18200;SDS011;9226;47.858;9.594;2023-02-28T04:12:06;8.97;;;4.97;;
18200;SDS011;9226;47.858;9.594;2023-02-28T04:14:32;10.53;;;5.03;;
18200;SDS011;9226;47.858;9.594;2023-02-28T04:16:57;12.33;;;5.20;;
18200;SDS011;9226;47.858;9.594;2023-02-28T04:19:23;11.73;;;5.00;;
18200;SDS011;9226;47.858;9.594;2023-02-28T04:21:50;9.53;;;4.90;;
18200;SDS011;9226;47.858;9.594;2023-02-28T04:24:20;10.20;;;4.70;;
18200;SDS011;9226;47.858;9.594;2023-02-28T04:26:48;10.63;;;4.33;;
18200;SDS011;9226;47.858;9.594;2023-02-28T04:29:23;11.80;;;5.70;;
18200;SDS011;9226;47.858;9.594;2023-02-28T04:31:50;11.83;;;4.73;;
18200;SDS011;9226;47.858;9.594;2023-02-28T04:34:16;11.60;;;5.33;;
18200;SDS011;9226;47.858;9.594;2023-02-28T04:36:41;15.37;;;6.07;;
18200;SDS011;9226;47.858;9.594;2023-02-28T04:39:07;10.57;;;5.37;;
18200;SDS011;9226;47.858;9.594;2023-02-28T04:41:34;13.37;;;4.73;;
18200;SDS011;9226;47.858;9.594;2023-02-28T04:44:00;10.73;;;5.17;;
18200;SDS011;9226;47.858;9.594;2023-02-28T04:46:25;14.57;;;5.93;;
18200;SDS011;9226;47.858;9.594;2023-02-28T04:48:50;10.83;;;5.43;;
18200;SDS011;9226;47.858;9.594;2023-02-28T04:51:16;9.57;;;4.83;;
18200;SDS011;9226;47.858;9.594;2023-02-28T04:53:44;11.70;;;5.07;;
18200;SDS011;9226;47.858;9.594;2023-02-28T04:56:11;10.03;;;4.83;;
18200;SDS011;9226;47.858;9.594;2023-02-28T04:58:38;13.30;;;5.60;;
18200;SDS011;9226;47.858;9.594;2023-02-28T05:01:15;11.80;;;5.43;;
18200;SDS011;9226;47.858;9.594;2023-02-28T05:03:42;10.50;;;5.37;;
18200;SDS011;9226;47.858;9.594;2023-02-28T05:06:08;13.50;;;5.63;;
18200;SDS011;9226;47.858;9.594;2023-02-28T05:08:35;10.27;;;5.03;;
18200;SDS011;9226;47.858;9.594;2023-02-28T05:11:01;12.10;;;5.63;;
18200;SDS011;9226;47.858;9.594;2023-02-28T05:13:27;12.50;;;5.97;;
18200;SDS011;9226;47.858;9.594;2023-02-28T05:15:53;13.43;;;5.80;;
18200;SDS011;9226;47.858;9.594;2023-02-28T05:18:19;12.57;;;5.63;;
18200;SDS011;9226;47.858;9.594;2023-02-28T05:20:44;15.17;;;5.70;;
18200;SDS011;9226;47.858;9.594;2023-02-28T05:23:13;12.10;;;5.50;;
18200;SDS011;9226;47.858;9.594;2023-02-28T05:25:39;13.70;;;5.20;;
18200;SDS011;9226;47.858;9.594;2023-02-28T05:28:05;12.50;;;5.87;;
18200;SDS011;9226;47.858;9.594;2023-02-28T05:30:31;12.37;;;5.73;;
18200;SDS011;9226;47.858;9.594;2023-02-28T05:32:57;11.60;;;5.27;;
18200;SDS011;9226;47.858;9.594;2023-02-28T05:35:23;9.87;;;4.87;;
18200;SDS011;9226;47.858;9.594;2023-02-28T05:37:49;10.47;;;4.57;;
18200;SDS011;9226;47.858;9.594;2023-02-28T05:40:15;12.40;;;5.17;;
18200;SDS011;9226;47.858;9.594;2023-02-28T05:42:42;12.57;;;5.70;;
18200;SDS011;9226;47.858;9.594;2023-02-28T05:45:07;13.53;;;6.23;;
18200;SDS011;9226;47.858;9.594;2023-02-28T05:47:34;12.03;;;5.90;;
18200;SDS011;9226;47.858;9.594;2023-02-28T05:49:59;12.33;;;4.67;;
18200;SDS011;9226;47.858;9.594;2023-02-28T05:52:26;14.07;;;6.03;;
18200;SDS011;9226;47.858;9.594;2023-02-28T05:54:51;13.33;;;5.40;;
18200;SDS011;9226;47.858;9.594;2023-02-28T05:57:17;10.73;;;5.73;;
18200;SDS011;9226;47.858;9.594;2023-02-28T05:59:42;10.70;;;5.30;;
18200;SDS011;9226;47.858;9.594;2023-02-28T06:02:12;12.40;;;5.33;;
18200;SDS011;9226;47.858;9.594;2023-02-28T06:04:40;13.23;;;5.53;;
18200;SDS011;9226;47.858;9.594;2023-02-28T06:07:06;10.87;;;5.47;;
18200;SDS011;9226;47.858;9.594;2023-02-28T06:09:32;13.63;;;6.03;;
18200;SDS011;9226;47.858;9.594;2023-02-28T06:11:58;12.30;;;5.73;;
18200;SDS011;9226;47.858;9.594;2023-02-28T06:14:25;14.57;;;5.93;;
18200;SDS011;9226;47.858;9.594;2023-02-28T06:16:51;12.57;;;6.13;;
18200;SDS011;9226;47.858;9.594;2023-02-28T06:19:16;11.90;;;4.90;;
18200;SDS011;9226;47.858;9.594;2023-02-28T06:21:42;11.87;;;5.90;;
18200;SDS011;9226;47.858;9.594;2023-02-28T06:24:07;14.00;;;5.93;;
18200;SDS011;9226;47.858;9.594;2023-02-28T06:26:33;18.33;;;5.73;;
18200;SDS011;9226;47.858;9.594;2023-02-28T06:28:58;14.23;;;6.07;;
18200;SDS011;9226;47.858;9.594;2023-02-28T06:31:25;12.03;;;5.70;;
18200;SDS011;9226;47.858;9.594;2023-02-28T06:33:51;13.80;;;5.97;;
18200;SDS011;9226;47.858;9.594;2023-02-28T06:36:17;11.80;;;5.53;;
18200;SDS011;9226;47.858;9.594;2023-02-28T06:38:43;14.70;;;6.17;;
18200;SDS011;9226;47.858;9.594;2023-02-28T06:41:09;13.90;;;6.47;;
18200;SDS011;9226;47.858;9.594;2023-02-28T06:43:36;13.70;;;5.97;;
18200;SDS011;9226;47.858;9.594;2023-02-28T06:46:05;13.13;;;5.83;;
18200;SDS011;9226;47.858;9.594;2023-02-28T06:48:32;15.17;;;6.23;;
18200;SDS011;9226;47.858;9.594;2023-02-28T06:51:05;17.27;;;6.33;;
18200;SDS011;9226;47.858;9.594;2023-02-28T06:53:35;15.53;;;6.17;;
18200;SDS011;9226;47.858;9.594;2023-02-28T06:56:05;17.23;;;5.10;;
18200;SDS011;9226;47.858;9.594;2023-02-28T06:58:31;18.47;;;7.27;;
18200;SDS011;9226;47.858;9.594;2023-02-28T07:00:57;14.27;;;6.77;;
18200;SDS011;9226;47.858;9.594;2023-02-28T07:03:22;16.47;;;7.27;;
18200;SDS011;9226;47.858;9.594;2023-02-28T07:05:48;11.60;;;6.03;;
18200;SDS011;9226;47.858;9.594;2023-02-28T07:08:13;14.53;;;6.40;;
18200;SDS011;9226;47.858;9.594;2023-02-28T07:10:39;10.90;;;5.43;;
18200;SDS011;9226;47.858;9.594;2023-02-28T07:13:06;15.07;;;5.90;;
18200;SDS011;9226;47.858;9.594;2023-02-28T07:15:32;14.73;;;6.37;;
18200;SDS011;9226;47.858;9.594;2023-02-28T07:17:57;14.03;;;6.50;;
18200;SDS011;9226;47.858;9.594;2023-02-28T07:20:23;16.37;;;7.17;;
18200;SDS011;9226;47.858;9.594;2023-02-28T07:22:49;14.60;;;6.80;;
18200;SDS011;9226;47.858;9.594;2023-02-28T07:25:30;13.20;;;6.40;;
18200;SDS011;9226;47.858;9.594;2023-02-28T07:27:55;14.33;;;6.47;;
18200;SDS011;9226;47.858;9.594;2023-02-28T07:30:21;16.43;;;6.83;;
18200;SDS011;9226;47.858;9.594;2023-02-28T07:32:47;13.87;;;6.40;;
18200;SDS011;9226;47.858;9.594;2023-02-28T07:35:13;13.30;;;6.33;;
18200;SDS011;9226;47.858;9.594;2023-02-28T07:37:40;15.67;;;7.03;;
18200;SDS011;9226;47.858;9.594;2023-02-28T07:40:07;16.23;;;6.73;;
18200;SDS011;9226;47.858;9.594;2023-02-28T07:42:39;16.47;;;7.13;;
18200;SDS011;9226;47.858;9.594;2023-02-28T07:45:05;20.60;;;7.53;;
18200;SDS011;9226;47.858;9.594;2023-02-28T07:47:32;17.17;;;7.10;;
18200;SDS011;9226;47.858;9.594;2023-02-28T07:49:57;15.30;;;7.07;;
18200;SDS011;9226;47.858;9.594;2023-02-28T07:52:23;15.40;;;6.80;;
18200;SDS011;9226;47.858;9.594;2023-02-28T07:54:49;18.23;;;7.77;;
18200;SDS011;9226;47.858;9.594;2023-02-28T07:57:15;15.93;;;7.07;;
18200;SDS011;9226;47.858;9.594;2023-02-28T07:59:41;16.40;;;6.63;;
18200;SDS011;9226;47.858;9.594;2023-02-28T08:02:06;15.97;;;7.50;;
18200;SDS011;9226;47.858;9.594;2023-02-28T08:04:34;14.37;;;6.90;;
18200;SDS011;9226;47.858;9.594;2023-02-28T08:07:00;18.87;;;7.43;;
18200;SDS011;9226;47.858;9.594;2023-02-28T08:09:25;18.67;;;6.93;;
18200;SDS011;9226;47.858;9.594;2023-02-28T08:11:51;19.83;;;8.27;;
18200;SDS011;9226;47.858;9.594;2023-02-28T08:14:16;15.90;;;7.40;;
18200;SDS011;9226;47.858;9.594;2023-02-28T08:16:41;17.60;;;7.33;;
18200;SDS011;9226;47.858;9.594;2023-02-28T08:19:08;16.47;;;7.07;;
18200;SDS011;9226;47.858;9.594;2023-02-28T08:21:33;15.77;;;6.60;;
18200;SDS011;9226;47.858;9.594;2023-02-28T08:23:59;16.47;;;7.40;;
18200;SDS011;9226;47.858;9.594;2023-02-28T08:26:25;20.50;;;8.07;;
18200;SDS011;9226;47.858;9.594;2023-02-28T08:28:51;17.50;;;7.03;;
18200;SDS011;9226;47.858;9.594;2023-02-28T08:31:17;12.80;;;6.20;;
18200;SDS011;9226;47.858;9.594;2023-02-28T08:33:43;16.53;;;7.57;;
18200;SDS011;9226;47.858;9.594;2023-02-28T08:36:09;16.57;;;7.47;;
18200;SDS011;9226;47.858;9.594;2023-02-28T08:38:35;18.00;;;7.37;;
18200;SDS011;9226;47.858;9.594;2023-02-28T08:41:02;15.37;;;6.37;;
18200;SDS011;9226;47.858;9.594;2023-02-28T08:43:32;18.07;;;7.50;;
18200;SDS011;9226;47.858;9.594;2023-02-28T08:45:58;18.33;;;7.70;;
18200;SDS011;9226;47.858;9.594;2023-02-28T08:48:24;22.97;;;7.77;;
18200;SDS011;9226;47.858;9.594;2023-02-28T08:53:22;19.30;;;7.60;;
18200;SDS011;9226;47.858;9.594;2023-02-28T08:55:55;18.33;;;7.40;;
18200;SDS011;9226;47.858;9.594;2023-02-28T08:58:29;17.13;;;7.30;;
18200;SDS011;9226;47.858;9.594;2023-02-28T09:00:55;14.53;;;7.13;;
18200;SDS011;9226;47.858;9.594;2023-02-28T09:03:22;17.30;;;7.73;;
18200;SDS011;9226;47.858;9.594;2023-02-28T09:05:58;20.10;;;8.30;;
18200;SDS011;9226;47.858;9.594;2023-02-28T09:08:25;20.50;;;7.60;;
18200;SDS011;9226;47.858;9.594;2023-02-28T09:10:52;18.77;;;7.67;;
18200;SDS011;9226;47.858;9.594;2023-02-28T09:13:19;14.57;;;6.97;;
18200;SDS011;9226;47.858;9.594;2023-02-28T09:15:45;17.83;;;6.97;;
18200;SDS011;9226;47.858;9.594;2023-02-28T09:18:10;18.33;;;8.17;;
18200;SDS011;9226;47.858;9.594;2023-02-28T09:20:39;19.77;;;8.23;;
18200;SDS011;9226;47.858;9.594;2023-02-28T09:23:06;17.97;;;7.37;;
18200;SDS011;9226;47.858;9.594;2023-02-28T09:25:33;18.20;;;8.57;;
18200;SDS011;9226;47.858;9.594;2023-02-28T09:27:58;19.13;;;7.93;;
18200;SDS011;9226;47.858;9.594;2023-02-28T09:30:24;18.93;;;7.70;;
18200;SDS011;9226;47.858;9.594;2023-02-28T09:32:49;22.10;;;7.93;;
18200;SDS011;9226;47.858;9.594;2023-02-28T09:35:17;19.37;;;7.47;;
18200;SDS011;9226;47.858;9.594;2023-02-28T09:37:44;17.43;;;7.57;;
18200;SDS011;9226;47.858;9.594;2023-02-28T09:40:10;16.63;;;7.00;;
18200;SDS011;9226;47.858;9.594;2023-02-28T09:42:37;25.40;;;8.07;;
18200;SDS011;9226;47.858;9.594;2023-02-28T09:45:06;17.07;;;7.77;;
18200;SDS011;9226;47.858;9.594;2023-02-28T09:47:54;17.17;;;7.90;;
18200;SDS011;9226;47.858;9.594;2023-02-28T09:53:06;19.13;;;8.03;;
18200;SDS011;9226;47.858;9.594;2023-02-28T09:55:45;20.03;;;8.23;;
18200;SDS011;9226;47.858;9.594;2023-02-28T10:06:59;20.17;;;8.43;;
18200;SDS011;9226;47.858;9.594;2023-02-28T10:09:31;22.53;;;8.57;;
18200;SDS011;9226;47.858;9.594;2023-02-28T10:12:00;19.27;;;8.57;;
18200;SDS011;9226;47.858;9.594;2023-02-28T10:14:30;17.27;;;7.53;;
18200;SDS011;9226;47.858;9.594;2023-02-28T10:16:59;21.37;;;8.53;;
18200;SDS011;9226;47.858;9.594;2023-02-28T10:22:17;19.47;;;8.57;;
18200;SDS011;9226;47.858;9.594;2023-02-28T10:25:01;17.93;;;7.83;;
18200;SDS011;9226;47.858;9.594;2023-02-28T10:27:41;22.73;;;8.73;;
18200;SDS011;9226;47.858;9.594;2023-02-28T10:30:09;18.03;;;8.67;;
18200;SDS011;9226;47.858;9.594;2023-02-28T10:32:38;17.23;;;7.47;;
18200;SDS011;9226;47.858;9.594;2023-02-28T10:37:41;17.57;;;8.47;;
18200;SDS011;9226;47.858;9.594;2023-02-28T10:42:42;23.07;;;8.60;;
18200;SDS011;9226;47.858;9.594;2023-02-28T10:45:24;20.43;;;8.37;;
18200;SDS011;9226;47.858;9.594;2023-02-28T10:47:58;21.43;;;9.40;;
18200;SDS011;9226;47.858;9.594;2023-02-28T10:50:35;26.73;;;9.73;;
18200;SDS011;9226;47.858;9.594;2023-02-28T10:56:02;21.60;;;9.73;;
18200;SDS011;9226;47.858;9.594;2023-02-28T10:58:30;24.33;;;9.87;;
18200;SDS011;9226;47.858;9.594;2023-02-28T11:01:12;22.23;;;9.90;;
18200;SDS011;9226;47.858;9.594;2023-02-28T11:03:40;21.13;;;9.40;;
18200;SDS011;9226;47.858;9.594;2023-02-28T11:06:25;22.00;;;8.93;;
18200;SDS011;9226;47.858;9.594;2023-02-28T11:08:55;31.70;;;9.73;;
18200;SDS011;9226;47.858;9.594;2023-02-28T11:11:24;19.70;;;8.20;;
18200;SDS011;9226;47.858;9.594;2023-02-28T11:13:52;20.13;;;8.37;;
18200;SDS011;9226;47.858;9.594;2023-02-28T11:16:20;19.67;;;8.53;;
18200;SDS011;9226;47.858;9.594;2023-02-28T11:18:50;22.80;;;8.93;;
18200;SDS011;9226;47.858;9.594;2023-02-28T11:21:22;21.43;;;8.83;;
18200;SDS011;9226;47.858;9.594;2023-02-28T11:23:52;20.60;;;8.47;;
18200;SDS011;9226;47.858;9.594;2023-02-28T11:26:39;19.53;;;8.40;;
18200;SDS011;9226;47.858;9.594;2023-02-28T11:29:16;22.00;;;9.57;;
18200;SDS011;9226;47.858;9.594;2023-02-28T11:32:16;22.43;;;9.97;;
18200;SDS011;9226;47.858;9.594;2023-02-28T11:34:43;24.40;;;9.40;;
18200;SDS011;9226;47.858;9.594;2023-02-28T11:37:11;21.63;;;8.60;;
18200;SDS011;9226;47.858;9.594;2023-02-28T11:39:38;20.27;;;8.57;;
18200;SDS011;9226;47.858;9.594;2023-02-28T11:45:07;20.80;;;9.10;;
18200;SDS011;9226;47.858;9.594;2023-02-28T11:50:31;20.87;;;8.77;;
18200;SDS011;9226;47.858;9.594;2023-02-28T11:53:24;25.37;;;8.37;;
18200;SDS011;9226;47.858;9.594;2023-02-28T11:56:08;21.73;;;9.50;;
18200;SDS011;9226;47.858;9.594;2023-02-28T12:06:33;18.97;;;9.20;;
18200;SDS011;9226;47.858;9.594;2023-02-28T12:12:18;20.90;;;9.67;;
18200;SDS011;9226;47.858;9.594;2023-02-28T12:17:32;22.63;;;9.17;;
18200;SDS011;9226;47.858;9.594;2023-02-28T12:20:05;23.63;;;10.10;;
18200;SDS011;9226;47.858;9.594;2023-02-28T12:22:56;23.80;;;9.13;;
18200;SDS011;9226;47.858;9.594;2023-02-28T12:28:29;25.17;;;8.97;;
18200;SDS011;9226;47.858;9.594;2023-02-28T12:31:05;24.17;;;9.37;;
18200;SDS011;9226;47.858;9.594;2023-02-28T12:33:43;20.20;;;9.63;;
18200;SDS011;9226;47.858;9.594;2023-02-28T12:36:16;20.20;;;8.67;;
18200;SDS011;9226;47.858;9.594;2023-02-28T12:39:05;24.00;;;10.03;;
18200;SDS011;9226;47.858;9.594;2023-02-28T12:46:54;28.47;;;11.40;;
18200;SDS011;9226;47.858;9.594;2023-02-28T12:49:31;25.60;;;10.87;;
18200;SDS011;9226;47.858;9.594;2023-02-28T12:52:01;26.93;;;10.57;;
18200;SDS011;9226;47.858;9.594;2023-02-28T12:54:31;27.00;;;10.93;;
18200;SDS011;9226;47.858;9.594;2023-02-28T12:59:54;31.80;;;11.37;;
18200;SDS011;9226;47.858;9.594;2023-02-28T13:05:29;24.00;;;10.43;;
18200;SDS011;9226;47.858;9.594;2023-02-28T13:10:50;28.67;;;11.37;;
18200;SDS011;9226;47.858;9.594;2023-02-28T13:13:22;26.90;;;11.03;;
18200;SDS011;9226;47.858;9.594;2023-02-28T13:16:06;22.63;;;10.37;;
18200;SDS011;9226;47.858;9.594;2023-02-28T13:18:44;21.67;;;9.77;;
18200;SDS011;9226;47.858;9.594;2023-02-28T13:21:27;31.67;;;11.30;;
18200;SDS011;9226;47.858;9.594;2023-02-28T13:34:41;25.47;;;10.93;;
18200;SDS011;9226;47.858;9.594;2023-02-28T13:37:32;26.37;;;11.90;;
18200;SDS011;9226;47.858;9.594;2023-02-28T13:42:35;31.27;;;11.87;;
18200;SDS011;9226;47.858;9.594;2023-02-28T14:06:38;28.97;;;11.50;;
18200;SDS011;9226;47.858;9.594;2023-02-28T14:11:38;28.00;;;12.17;;
18200;SDS011;9226;47.858;9.594;2023-02-28T14:14:06;24.70;;;10.13;;
18200;SDS011;9226;47.858;9.594;2023-02-28T14:16:44;27.83;;;10.23;;
18200;SDS011;9226;47.858;9.594;2023-02-28T14:19:12;30.30;;;11.57;;
18200;SDS011;9226;47.858;9.594;2023-02-28T14:27:52;29.80;;;9.90;;
18200;SDS011;9226;47.858;9.594;2023-02-28T14:33:23;25.30;;;10.97;;
18200;SDS011;9226;47.858;9.594;2023-02-28T14:36:18;24.53;;;9.47;;
18200;SDS011;9226;47.858;9.594;2023-02-28T14:39:11;24.20;;;10.43;;
18200;SDS011;9226;47.858;9.594;2023-02-28T14:41:42;23.97;;;9.83;;
18200;SDS011;9226;47.858;9.594;2023-02-28T14:46:42;26.73;;;11.00;;
18200;SDS011;9226;47.858;9.594;2023-02-28T14:54:52;22.47;;;9.03;;
18200;SDS011;9226;47.858;9.594;2023-02-28T14:59:57;34.80;;;11.50;;
18200;SDS011;9226;47.858;9.594;2023-02-28T15:02:23;26.27;;;9.93;;
18200;SDS011;9226;47.858;9.594;2023-02-28T15:05:33;24.67;;;11.13;;
18200;SDS011;9226;47.858;9.594;2023-02-28T15:07:41;23.73;;;10.60;;
18200;SDS011;9226;47.858;9.594;2023-02-28T15:12:45;25.40;;;10.50;;
18200;SDS011;9226;47.858;9.594;2023-02-28T15:15:16;23.90;;;10.43;;
18200;SDS011;9226;47.858;9.594;2023-02-28T15:17:45;21.20;;;9.67;;
18200;SDS011;9226;47.858;9.594;2023-02-28T15:20:15;20.50;;;8.60;;
18200;SDS011;9226;47.858;9.594;2023-02-28T15:22:41;23.53;;;10.70;;
18200;SDS011;9226;47.858;9.594;2023-02-28T15:25:09;33.30;;;11.93;;
18200;SDS011;9226;47.858;9.594;2023-02-28T15:27:41;24.60;;;11.40;;
18200;SDS011;9226;47.858;9.594;2023-02-28T15:30:15;24.33;;;10.57;;
18200;SDS011;9226;47.858;9.594;2023-02-28T15:32:43;26.03;;;11.47;;
18200;SDS011;9226;47.858;9.594;2023-02-28T15:35:19;27.20;;;10.83;;
18200;SDS011;9226;47.858;9.594;2023-02-28T15:37:54;28.47;;;11.03;;
18200;SDS011;9226;47.858;9.594;2023-02-28T15:40:38;28.73;;;10.50;;
18200;SDS011;9226;47.858;9.594;2023-02-28T15:48:45;28.03;;;11.10;;
18200;SDS011;9226;47.858;9.594;2023-02-28T15:51:18;25.03;;;11.03;;
18200;SDS011;9226;47.858;9.594;2023-02-28T15:53:50;25.97;;;10.77;;
18200;SDS011;9226;47.858;9.594;2023-02-28T15:58:49;23.77;;;11.27;;
18200;SDS011;9226;47.858;9.594;2023-02-28T16:01:21;22.27;;;10.67;;
18200;SDS011;9226;47.858;9.594;2023-02-28T16:04:01;24.87;;;10.40;;
18200;SDS011;9226;47.858;9.594;2023-02-28T16:09:00;29.70;;;10.83;;
18200;SDS011;9226;47.858;9.594;2023-02-28T16:11:26;24.10;;;11.50;;
18200;SDS011;9226;47.858;9.594;2023-02-28T16:13:52;24.80;;;11.03;;
18200;SDS011;9226;47.858;9.594;2023-02-28T16:16:18;24.60;;;11.57;;
18200;SDS011;9226;47.858;9.594;2023-02-28T16:18:47;29.43;;;11.50;;
18200;SDS011;9226;47.858;9.594;2023-02-28T16:21:13;28.40;;;11.57;;
18200;SDS011;9226;47.858;9.594;2023-02-28T16:23:38;29.63;;;12.10;;
18200;SDS011;9226;47.858;9.594;2023-02-28T16:26:04;27.00;;;11.43;;
18200;SDS011;9226;47.858;9.594;2023-02-28T16:28:31;24.47;;;11.03;;
18200;SDS011;9226;47.858;9.594;2023-02-28T16:31:00;26.57;;;11.77;;
18200;SDS011;9226;47.858;9.594;2023-02-28T16:33:30;24.60;;;10.90;;
18200;SDS011;9226;47.858;9.594;2023-02-28T16:35:56;27.70;;;11.50;;
18200;SDS011;9226;47.858;9.594;2023-02-28T16:38:21;27.27;;;11.47;;
18200;SDS011;9226;47.858;9.594;2023-02-28T16:40:48;25.27;;;11.67;;
18200;SDS011;9226;47.858;9.594;2023-02-28T16:43:16;25.33;;;11.13;;
18200;SDS011;9226;47.858;9.594;2023-02-28T16:45:44;24.80;;;10.93;;
18200;SDS011;9226;47.858;9.594;2023-02-28T16:48:16;30.40;;;11.23;;
18200;SDS011;9226;47.858;9.594;2023-02-28T16:50:42;28.40;;;11.40;;
18200;SDS011;9226;47.858;9.594;2023-02-28T16:53:09;26.27;;;11.60;;
18200;SDS011;9226;47.858;9.594;2023-02-28T16:55:35;31.70;;;11.73;;
18200;SDS011;9226;47.858;9.594;2023-02-28T16:58:00;27.50;;;11.87;;
18200;SDS011;9226;47.858;9.594;2023-02-28T17:00:27;27.17;;;11.67;;
18200;SDS011;9226;47.858;9.594;2023-02-28T17:02:54;26.17;;;11.33;;
18200;SDS011;9226;47.858;9.594;2023-02-28T17:05:21;24.20;;;11.07;;
18200;SDS011;9226;47.858;9.594;2023-02-28T17:07:47;29.53;;;11.57;;
18200;SDS011;9226;47.858;9.594;2023-02-28T17:12:43;24.97;;;11.40;;
18200;SDS011;9226;47.858;9.594;2023-02-28T17:15:10;24.90;;;11.37;;
18200;SDS011;9226;47.858;9.594;2023-02-28T17:17:37;31.13;;;11.83;;
18200;SDS011;9226;47.858;9.594;2023-02-28T17:20:03;27.43;;;11.47;;
18200;SDS011;9226;47.858;9.594;2023-02-28T17:22:29;29.93;;;12.47;;
18200;SDS011;9226;47.858;9.594;2023-02-28T17:24:54;30.47;;;11.53;;
18200;SDS011;9226;47.858;9.594;2023-02-28T17:27:23;27.30;;;11.70;;
18200;SDS011;9226;47.858;9.594;2023-02-28T17:29:49;30.07;;;11.37;;
18200;SDS011;9226;47.858;9.594;2023-02-28T17:32:14;33.43;;;11.80;;
18200;SDS011;9226;47.858;9.594;2023-02-28T17:34:40;27.23;;;11.53;;
18200;SDS011;9226;47.858;9.594;2023-02-28T17:37:05;26.93;;;12.23;;
18200;SDS011;9226;47.858;9.594;2023-02-28T17:39:33;29.70;;;11.50;;
18200;SDS011;9226;47.858;9.594;2023-02-28T17:41:58;32.00;;;11.93;;
18200;SDS011;9226;47.858;9.594;2023-02-28T17:44:24;28.73;;;11.80;;
18200;SDS011;9226;47.858;9.594;2023-02-28T17:46:50;27.40;;;11.97;;
18200;SDS011;9226;47.858;9.594;2023-02-28T17:49:16;28.77;;;11.77;;
18200;SDS011;9226;47.858;9.594;2023-02-28T17:51:42;24.63;;;10.50;;